sensor_id;sensor_type;location;lat;lon;timestamp;P1;durP1;ratioP1;P2;durP2;ratioP2
85461;SDS011;75865;42.672;23.360;2024-03-07T00:00:17;19.30;;;11.38;;
85461;SDS011;75865;42.672;23.360;2024-03-07T00:02:46;20.02;;;11.95;;
85461;SDS011;75865;42.672;23.360;2024-03-07T00:05:19;13.85;;;9.55;;
85461;SDS011;75865;42.672;23.360;2024-03-07T00:07:47;16.95;;;10.23;;
85461;SDS011;75865;42.672;23.360;2024-03-07T00:10:14;15.55;;;10.02;;
85461;SDS011;75865;42.672;23.360;2024-03-07T00:12:42;17.55;;;10.50;;
85461;SDS011;75865;42.672;23.360;2024-03-07T00:15:11;17.60;;;10.60;;
85461;SDS011;75865;42.672;23.360;2024-03-07T00:17:40;15.65;;;10.55;;
85461;SDS011;75865;42.672;23.360;2024-03-07T00:20:08;16.83;;;11.13;;
85461;SDS011;75865;42.672;23.360;2024-03-07T00:22:36;16.17;;;9.35;;
85461;SDS011;75865;42.672;23.360;2024-03-07T00:25:03;15.20;;;9.90;;
85461;SDS011;75865;42.672;23.360;2024-03-07T00:27:32;15.02;;;10.18;;
85461;SDS011;75865;42.672;23.360;2024-03-07T00:29:59;15.02;;;10.05;;
85461;SDS011;75865;42.672;23.360;2024-03-07T00:32:26;14.23;;;9.15;;
85461;SDS011;75865;42.672;23.360;2024-03-07T00:34:56;15.13;;;9.75;;
85461;SDS011;75865;42.672;23.360;2024-03-07T00:37:23;13.27;;;8.75;;
85461;SDS011;75865;42.672;23.360;2024-03-07T00:39:53;12.82;;;9.45;;
85461;SDS011;75865;42.672;23.360;2024-03-07T00:42:20;14.93;;;8.23;;
85461;SDS011;75865;42.672;23.360;2024-03-07T00:44:48;13.43;;;9.23;;
85461;SDS011;75865;42.672;23.360;2024-03-07T00:47:16;14.00;;;8.68;;
85461;SDS011;75865;42.672;23.360;2024-03-07T00:49:45;13.57;;;8.93;;
85461;SDS011;75865;42.672;23.360;2024-03-07T00:52:15;13.45;;;9.13;;
85461;SDS011;75865;42.672;23.360;2024-03-07T00:54:42;15.88;;;10.15;;
85461;SDS011;75865;42.672;23.360;2024-03-07T00:57:09;14.05;;;8.57;;
85461;SDS011;75865;42.672;23.360;2024-03-07T00:59:36;10.23;;;7.65;;
85461;SDS011;75865;42.672;23.360;2024-03-07T01:02:04;14.07;;;8.52;;
85461;SDS011;75865;42.672;23.360;2024-03-07T01:04:31;14.25;;;9.00;;
85461;SDS011;75865;42.672;23.360;2024-03-07T01:07:00;12.25;;;8.57;;
85461;SDS011;75865;42.672;23.360;2024-03-07T01:09:27;11.98;;;7.28;;
85461;SDS011;75865;42.672;23.360;2024-03-07T01:11:57;12.93;;;7.65;;
85461;SDS011;75865;42.672;23.360;2024-03-07T01:14:26;13.93;;;8.55;;
85461;SDS011;75865;42.672;23.360;2024-03-07T01:16:53;13.68;;;8.07;;
85461;SDS011;75865;42.672;23.360;2024-03-07T01:19:20;12.07;;;8.23;;
85461;SDS011;75865;42.672;23.360;2024-03-07T01:21:48;12.85;;;7.90;;
85461;SDS011;75865;42.672;23.360;2024-03-07T01:24:15;12.30;;;8.30;;
85461;SDS011;75865;42.672;23.360;2024-03-07T01:26:47;11.77;;;8.43;;
85461;SDS011;75865;42.672;23.360;2024-03-07T01:29:14;11.73;;;8.63;;
85461;SDS011;75865;42.672;23.360;2024-03-07T01:31:42;14.20;;;8.85;;
85461;SDS011;75865;42.672;23.360;2024-03-07T01:34:09;13.32;;;7.70;;
85461;SDS011;75865;42.672;23.360;2024-03-07T01:36:36;9.52;;;6.40;;
85461;SDS011;75865;42.672;23.360;2024-03-07T01:39:03;11.13;;;7.43;;
85461;SDS011;75865;42.672;23.360;2024-03-07T01:41:30;14.07;;;7.90;;
85461;SDS011;75865;42.672;23.360;2024-03-07T01:43:57;13.30;;;7.88;;
85461;SDS011;75865;42.672;23.360;2024-03-07T01:46:24;14.32;;;7.05;;
85461;SDS011;75865;42.672;23.360;2024-03-07T01:48:51;12.00;;;7.25;;
85461;SDS011;75865;42.672;23.360;2024-03-07T01:51:18;11.20;;;6.47;;
85461;SDS011;75865;42.672;23.360;2024-03-07T01:56:15;12.75;;;6.85;;
85461;SDS011;75865;42.672;23.360;2024-03-07T01:58:42;14.50;;;7.85;;
85461;SDS011;75865;42.672;23.360;2024-03-07T02:01:13;10.05;;;6.63;;
85461;SDS011;75865;42.672;23.360;2024-03-07T02:03:42;13.23;;;8.05;;
85461;SDS011;75865;42.672;23.360;2024-03-07T02:06:09;11.63;;;7.22;;
85461;SDS011;75865;42.672;23.360;2024-03-07T02:08:38;12.57;;;8.07;;
85461;SDS011;75865;42.672;23.360;2024-03-07T02:11:05;13.40;;;8.15;;
85461;SDS011;75865;42.672;23.360;2024-03-07T02:13:32;10.80;;;7.18;;
85461;SDS011;75865;42.672;23.360;2024-03-07T02:15:59;8.52;;;5.88;;
85461;SDS011;75865;42.672;23.360;2024-03-07T02:18:26;11.27;;;7.07;;
85461;SDS011;75865;42.672;23.360;2024-03-07T02:20:53;6.32;;;4.63;;
85461;SDS011;75865;42.672;23.360;2024-03-07T02:23:21;9.00;;;4.35;;
85461;SDS011;75865;42.672;23.360;2024-03-07T02:25:48;4.55;;;3.28;;
85461;SDS011;75865;42.672;23.360;2024-03-07T02:28:15;4.22;;;2.47;;
85461;SDS011;75865;42.672;23.360;2024-03-07T02:30:41;1.48;;;1.05;;
85461;SDS011;75865;42.672;23.360;2024-03-07T02:33:09;2.00;;;1.35;;
85461;SDS011;75865;42.672;23.360;2024-03-07T02:35:36;1.35;;;0.80;;
85461;SDS011;75865;42.672;23.360;2024-03-07T02:38:03;1.20;;;0.70;;
85461;SDS011;75865;42.672;23.360;2024-03-07T02:40:35;1.20;;;0.98;;
85461;SDS011;75865;42.672;23.360;2024-03-07T02:43:01;2.10;;;1.30;;
85461;SDS011;75865;42.672;23.360;2024-03-07T02:45:31;3.05;;;1.10;;
85461;SDS011;75865;42.672;23.360;2024-03-07T02:47:58;1.77;;;1.20;;
85461;SDS011;75865;42.672;23.360;2024-03-07T02:50:25;1.77;;;1.20;;
85461;SDS011;75865;42.672;23.360;2024-03-07T02:52:52;2.20;;;1.10;;
85461;SDS011;75865;42.672;23.360;2024-03-07T02:55:19;1.73;;;0.88;;
85461;SDS011;75865;42.672;23.360;2024-03-07T02:57:47;1.10;;;0.68;;
85461;SDS011;75865;42.672;23.360;2024-03-07T03:00:14;2.00;;;0.70;;
85461;SDS011;75865;42.672;23.360;2024-03-07T03:02:48;0.85;;;0.68;;
85461;SDS011;75865;42.672;23.360;2024-03-07T03:05:15;2.53;;;0.70;;
85461;SDS011;75865;42.672;23.360;2024-03-07T03:07:43;1.35;;;0.68;;
85461;SDS011;75865;42.672;23.360;2024-03-07T03:10:22;0.95;;;0.60;;
85461;SDS011;75865;42.672;23.360;2024-03-07T03:12:56;1.70;;;0.77;;
85461;SDS011;75865;42.672;23.360;2024-03-07T03:15:27;1.20;;;0.70;;
85461;SDS011;75865;42.672;23.360;2024-03-07T03:17:56;2.47;;;0.70;;
85461;SDS011;75865;42.672;23.360;2024-03-07T03:20:26;1.50;;;1.02;;
85461;SDS011;75865;42.672;23.360;2024-03-07T03:23:01;2.25;;;0.90;;
85461;SDS011;75865;42.672;23.360;2024-03-07T03:25:46;1.80;;;0.95;;
85461;SDS011;75865;42.672;23.360;2024-03-07T03:28:15;1.35;;;0.93;;
85461;SDS011;75865;42.672;23.360;2024-03-07T03:30:43;1.27;;;0.85;;
85461;SDS011;75865;42.672;23.360;2024-03-07T03:33:10;0.98;;;0.80;;
85461;SDS011;75865;42.672;23.360;2024-03-07T03:35:38;1.88;;;0.82;;
85461;SDS011;75865;42.672;23.360;2024-03-07T03:38:06;1.40;;;0.75;;
85461;SDS011;75865;42.672;23.360;2024-03-07T03:40:34;1.90;;;0.75;;
85461;SDS011;75865;42.672;23.360;2024-03-07T03:43:01;0.85;;;0.50;;
85461;SDS011;75865;42.672;23.360;2024-03-07T03:45:28;1.10;;;0.60;;
85461;SDS011;75865;42.672;23.360;2024-03-07T03:47:55;2.50;;;0.82;;
85461;SDS011;75865;42.672;23.360;2024-03-07T03:50:22;1.52;;;0.95;;
85461;SDS011;75865;42.672;23.360;2024-03-07T03:52:52;1.13;;;0.80;;
85461;SDS011;75865;42.672;23.360;2024-03-07T03:55:19;2.47;;;0.60;;
85461;SDS011;75865;42.672;23.360;2024-03-07T03:57:47;0.50;;;0.50;;
85461;SDS011;75865;42.672;23.360;2024-03-07T04:00:15;0.80;;;0.50;;
85461;SDS011;75865;42.672;23.360;2024-03-07T04:02:44;0.63;;;0.47;;
85461;SDS011;75865;42.672;23.360;2024-03-07T04:05:17;0.60;;;0.40;;
85461;SDS011;75865;42.672;23.360;2024-03-07T04:07:45;0.60;;;0.40;;
85461;SDS011;75865;42.672;23.360;2024-03-07T04:10:14;0.75;;;0.38;;
85461;SDS011;75865;42.672;23.360;2024-03-07T04:12:42;1.63;;;0.63;;
85461;SDS011;75865;42.672;23.360;2024-03-07T04:15:13;0.50;;;0.40;;
85461;SDS011;75865;42.672;23.360;2024-03-07T04:17:45;0.70;;;0.40;;
85461;SDS011;75865;42.672;23.360;2024-03-07T04:20:13;0.88;;;0.52;;
85461;SDS011;75865;42.672;23.360;2024-03-07T04:22:40;0.93;;;0.50;;
85461;SDS011;75865;42.672;23.360;2024-03-07T04:25:07;2.17;;;0.80;;
85461;SDS011;75865;42.672;23.360;2024-03-07T04:27:36;1.02;;;0.70;;
85461;SDS011;75865;42.672;23.360;2024-03-07T04:30:03;1.00;;;0.68;;
85461;SDS011;75865;42.672;23.360;2024-03-07T04:32:31;4.05;;;0.70;;
85461;SDS011;75865;42.672;23.360;2024-03-07T04:35:00;0.52;;;0.50;;
85461;SDS011;75865;42.672;23.360;2024-03-07T04:37:30;1.48;;;0.40;;
85461;SDS011;75865;42.672;23.360;2024-03-07T04:39:57;1.27;;;0.45;;
85461;SDS011;75865;42.672;23.360;2024-03-07T04:42:23;1.02;;;0.50;;
85461;SDS011;75865;42.672;23.360;2024-03-07T04:44:50;1.40;;;0.60;;
85461;SDS011;75865;42.672;23.360;2024-03-07T04:47:18;0.77;;;0.40;;
85461;SDS011;75865;42.672;23.360;2024-03-07T04:49:45;2.55;;;0.90;;
85461;SDS011;75865;42.672;23.360;2024-03-07T04:52:12;0.95;;;0.60;;
85461;SDS011;75865;42.672;23.360;2024-03-07T04:54:38;1.08;;;0.77;;
85461;SDS011;75865;42.672;23.360;2024-03-07T04:57:05;1.83;;;0.82;;
85461;SDS011;75865;42.672;23.360;2024-03-07T04:59:32;1.80;;;1.00;;
85461;SDS011;75865;42.672;23.360;2024-03-07T05:01:59;1.65;;;1.02;;
85461;SDS011;75865;42.672;23.360;2024-03-07T05:04:26;2.67;;;1.38;;
85461;SDS011;75865;42.672;23.360;2024-03-07T05:06:55;1.65;;;1.17;;
85461;SDS011;75865;42.672;23.360;2024-03-07T05:09:24;2.97;;;1.38;;
85461;SDS011;75865;42.672;23.360;2024-03-07T05:11:52;4.03;;;2.33;;
85461;SDS011;75865;42.672;23.360;2024-03-07T05:14:20;3.30;;;1.95;;
85461;SDS011;75865;42.672;23.360;2024-03-07T05:16:52;2.85;;;1.75;;
85461;SDS011;75865;42.672;23.360;2024-03-07T05:19:37;3.80;;;1.70;;
85461;SDS011;75865;42.672;23.360;2024-03-07T05:22:04;6.10;;;2.97;;
85461;SDS011;75865;42.672;23.360;2024-03-07T05:24:31;3.33;;;2.13;;
85461;SDS011;75865;42.672;23.360;2024-03-07T05:27:00;2.47;;;1.58;;
85461;SDS011;75865;42.672;23.360;2024-03-07T05:29:27;2.55;;;1.60;;
85461;SDS011;75865;42.672;23.360;2024-03-07T05:31:54;12.70;;;2.20;;
85461;SDS011;75865;42.672;23.360;2024-03-07T05:34:21;3.65;;;2.30;;
85461;SDS011;75865;42.672;23.360;2024-03-07T05:36:50;3.40;;;1.98;;
85461;SDS011;75865;42.672;23.360;2024-03-07T05:39:17;3.15;;;2.15;;
85461;SDS011;75865;42.672;23.360;2024-03-07T05:41:45;2.72;;;1.80;;
85461;SDS011;75865;42.672;23.360;2024-03-07T05:44:13;6.57;;;4.13;;
85461;SDS011;75865;42.672;23.360;2024-03-07T05:46:43;4.72;;;3.03;;
85461;SDS011;75865;42.672;23.360;2024-03-07T05:49:15;2.38;;;1.60;;
85461;SDS011;75865;42.672;23.360;2024-03-07T05:51:43;4.22;;;2.38;;
85461;SDS011;75865;42.672;23.360;2024-03-07T05:54:11;6.07;;;3.20;;
85461;SDS011;75865;42.672;23.360;2024-03-07T05:56:40;4.38;;;2.67;;
85461;SDS011;75865;42.672;23.360;2024-03-07T05:59:07;3.35;;;2.38;;
85461;SDS011;75865;42.672;23.360;2024-03-07T06:01:38;5.50;;;2.20;;
85461;SDS011;75865;42.672;23.360;2024-03-07T06:04:06;6.40;;;2.75;;
85461;SDS011;75865;42.672;23.360;2024-03-07T06:06:33;4.22;;;2.80;;
85461;SDS011;75865;42.672;23.360;2024-03-07T06:09:07;3.72;;;2.30;;
85461;SDS011;75865;42.672;23.360;2024-03-07T06:11:35;4.70;;;2.33;;
85461;SDS011;75865;42.672;23.360;2024-03-07T06:14:03;3.92;;;2.67;;
85461;SDS011;75865;42.672;23.360;2024-03-07T06:16:33;4.40;;;2.47;;
85461;SDS011;75865;42.672;23.360;2024-03-07T06:21:29;5.03;;;3.30;;
85461;SDS011;75865;42.672;23.360;2024-03-07T06:23:59;5.35;;;2.10;;
85461;SDS011;75865;42.672;23.360;2024-03-07T06:26:34;5.45;;;3.10;;
85461;SDS011;75865;42.672;23.360;2024-03-07T06:29:16;4.57;;;2.67;;
85461;SDS011;75865;42.672;23.360;2024-03-07T06:31:44;4.55;;;2.60;;
85461;SDS011;75865;42.672;23.360;2024-03-07T06:34:14;6.53;;;2.50;;
85461;SDS011;75865;42.672;23.360;2024-03-07T06:36:41;5.75;;;3.67;;
85461;SDS011;75865;42.672;23.360;2024-03-07T06:39:08;5.13;;;3.25;;
85461;SDS011;75865;42.672;23.360;2024-03-07T06:41:38;5.90;;;3.65;;
85461;SDS011;75865;42.672;23.360;2024-03-07T06:44:06;5.93;;;3.17;;
85461;SDS011;75865;42.672;23.360;2024-03-07T06:46:34;4.13;;;2.38;;
85461;SDS011;75865;42.672;23.360;2024-03-07T06:49:01;3.92;;;2.90;;
85461;SDS011;75865;42.672;23.360;2024-03-07T06:51:28;3.72;;;2.63;;
85461;SDS011;75865;42.672;23.360;2024-03-07T06:53:55;2.63;;;2.17;;
85461;SDS011;75865;42.672;23.360;2024-03-07T06:56:23;4.55;;;2.63;;
85461;SDS011;75865;42.672;23.360;2024-03-07T06:58:51;3.80;;;2.10;;
85461;SDS011;75865;42.672;23.360;2024-03-07T07:01:18;4.72;;;3.38;;
85461;SDS011;75865;42.672;23.360;2024-03-07T07:03:46;6.70;;;3.60;;
85461;SDS011;75865;42.672;23.360;2024-03-07T07:06:15;5.35;;;3.20;;
85461;SDS011;75865;42.672;23.360;2024-03-07T07:08:43;11.90;;;7.22;;
85461;SDS011;75865;42.672;23.360;2024-03-07T07:11:11;5.47;;;3.30;;
85461;SDS011;75865;42.672;23.360;2024-03-07T07:13:39;6.32;;;2.97;;
85461;SDS011;75865;42.672;23.360;2024-03-07T07:16:06;3.90;;;2.67;;
85461;SDS011;75865;42.672;23.360;2024-03-07T07:18:33;5.65;;;3.08;;
85461;SDS011;75865;42.672;23.360;2024-03-07T07:21:02;3.58;;;2.72;;
85461;SDS011;75865;42.672;23.360;2024-03-07T07:23:30;6.10;;;3.17;;
85461;SDS011;75865;42.672;23.360;2024-03-07T07:25:57;7.80;;;2.88;;
85461;SDS011;75865;42.672;23.360;2024-03-07T07:28:23;5.55;;;3.13;;
85461;SDS011;75865;42.672;23.360;2024-03-07T07:30:50;5.25;;;2.75;;
85461;SDS011;75865;42.672;23.360;2024-03-07T07:33:17;4.85;;;3.00;;
85461;SDS011;75865;42.672;23.360;2024-03-07T07:35:44;5.03;;;2.40;;
85461;SDS011;75865;42.672;23.360;2024-03-07T07:38:12;3.60;;;2.20;;
85461;SDS011;75865;42.672;23.360;2024-03-07T07:40:41;4.80;;;2.60;;
85461;SDS011;75865;42.672;23.360;2024-03-07T07:43:09;10.57;;;6.03;;
85461;SDS011;75865;42.672;23.360;2024-03-07T07:45:54;2.95;;;2.05;;
85461;SDS011;75865;42.672;23.360;2024-03-07T07:48:21;4.78;;;2.08;;
85461;SDS011;75865;42.672;23.360;2024-03-07T07:50:49;2.63;;;2.03;;
85461;SDS011;75865;42.672;23.360;2024-03-07T07:53:18;3.03;;;2.17;;
85461;SDS011;75865;42.672;23.360;2024-03-07T07:55:45;3.22;;;1.98;;
85461;SDS011;75865;42.672;23.360;2024-03-07T07:58:13;4.13;;;2.22;;
85461;SDS011;75865;42.672;23.360;2024-03-07T08:00:40;3.58;;;2.20;;
85461;SDS011;75865;42.672;23.360;2024-03-07T08:03:10;3.70;;;2.40;;
85461;SDS011;75865;42.672;23.360;2024-03-07T08:05:37;2.47;;;1.58;;
85461;SDS011;75865;42.672;23.360;2024-03-07T08:08:05;6.57;;;2.22;;
85461;SDS011;75865;42.672;23.360;2024-03-07T08:10:34;3.03;;;1.85;;
85461;SDS011;75865;42.672;23.360;2024-03-07T08:13:03;2.70;;;1.45;;
85461;SDS011;75865;42.672;23.360;2024-03-07T08:15:32;2.40;;;1.73;;
85461;SDS011;75865;42.672;23.360;2024-03-07T08:18:00;2.33;;;1.30;;
85461;SDS011;75865;42.672;23.360;2024-03-07T08:20:28;3.38;;;1.63;;
85461;SDS011;75865;42.672;23.360;2024-03-07T08:22:55;3.78;;;2.30;;
85461;SDS011;75865;42.672;23.360;2024-03-07T08:25:24;7.15;;;3.88;;
85461;SDS011;75865;42.672;23.360;2024-03-07T08:27:52;3.20;;;1.50;;
85461;SDS011;75865;42.672;23.360;2024-03-07T08:30:20;2.50;;;1.63;;
85461;SDS011;75865;42.672;23.360;2024-03-07T08:32:54;3.25;;;1.90;;
85461;SDS011;75865;42.672;23.360;2024-03-07T08:35:22;3.20;;;1.42;;
85461;SDS011;75865;42.672;23.360;2024-03-07T08:37:50;3.40;;;1.70;;
85461;SDS011;75865;42.672;23.360;2024-03-07T08:40:24;2.35;;;1.17;;
85461;SDS011;75865;42.672;23.360;2024-03-07T08:42:58;2.35;;;1.42;;
85461;SDS011;75865;42.672;23.360;2024-03-07T08:45:26;2.35;;;1.20;;
85461;SDS011;75865;42.672;23.360;2024-03-07T08:47:54;1.73;;;1.35;;
85461;SDS011;75865;42.672;23.360;2024-03-07T08:50:25;2.40;;;1.23;;
85461;SDS011;75865;42.672;23.360;2024-03-07T08:52:53;5.65;;;1.83;;
85461;SDS011;75865;42.672;23.360;2024-03-07T08:55:22;1.67;;;1.15;;
85461;SDS011;75865;42.672;23.360;2024-03-07T08:57:51;3.97;;;1.63;;
85461;SDS011;75865;42.672;23.360;2024-03-07T09:00:18;3.22;;;1.70;;
85461;SDS011;75865;42.672;23.360;2024-03-07T09:02:50;3.20;;;1.77;;
85461;SDS011;75865;42.672;23.360;2024-03-07T09:05:21;2.60;;;1.00;;
85461;SDS011;75865;42.672;23.360;2024-03-07T09:07:53;4.82;;;1.45;;
85461;SDS011;75865;42.672;23.360;2024-03-07T09:10:21;4.32;;;1.95;;
85461;SDS011;75865;42.672;23.360;2024-03-07T09:12:49;3.83;;;1.80;;
85461;SDS011;75865;42.672;23.360;2024-03-07T09:15:18;3.63;;;2.05;;
85461;SDS011;75865;42.672;23.360;2024-03-07T09:17:49;6.80;;;2.42;;
85461;SDS011;75865;42.672;23.360;2024-03-07T09:20:16;3.53;;;2.60;;
85461;SDS011;75865;42.672;23.360;2024-03-07T09:22:45;3.95;;;1.80;;
85461;SDS011;75865;42.672;23.360;2024-03-07T09:25:17;2.95;;;1.92;;
85461;SDS011;75865;42.672;23.360;2024-03-07T09:27:46;2.80;;;2.00;;
85461;SDS011;75865;42.672;23.360;2024-03-07T09:30:13;2.67;;;2.05;;
85461;SDS011;75865;42.672;23.360;2024-03-07T09:32:48;3.40;;;2.03;;
85461;SDS011;75865;42.672;23.360;2024-03-07T09:35:16;2.97;;;2.03;;
85461;SDS011;75865;42.672;23.360;2024-03-07T09:37:43;2.50;;;1.55;;
85461;SDS011;75865;42.672;23.360;2024-03-07T09:40:12;3.13;;;2.30;;
85461;SDS011;75865;42.672;23.360;2024-03-07T09:42:47;6.45;;;1.90;;
85461;SDS011;75865;42.672;23.360;2024-03-07T09:45:19;4.00;;;1.92;;
85461;SDS011;75865;42.672;23.360;2024-03-07T09:47:49;2.20;;;1.77;;
85461;SDS011;75865;42.672;23.360;2024-03-07T09:50:20;2.80;;;1.98;;
85461;SDS011;75865;42.672;23.360;2024-03-07T09:52:53;3.63;;;1.80;;
85461;SDS011;75865;42.672;23.360;2024-03-07T09:55:21;3.45;;;1.83;;
85461;SDS011;75865;42.672;23.360;2024-03-07T09:57:53;3.80;;;1.77;;
85461;SDS011;75865;42.672;23.360;2024-03-07T10:00:23;2.67;;;1.83;;
85461;SDS011;75865;42.672;23.360;2024-03-07T10:02:58;5.28;;;2.10;;
85461;SDS011;75865;42.672;23.360;2024-03-07T10:05:35;3.50;;;2.38;;
85461;SDS011;75865;42.672;23.360;2024-03-07T10:08:06;4.50;;;2.10;;
85461;SDS011;75865;42.672;23.360;2024-03-07T10:10:34;3.35;;;2.20;;
85461;SDS011;75865;42.672;23.360;2024-03-07T10:13:01;2.67;;;1.90;;
85461;SDS011;75865;42.672;23.360;2024-03-07T10:15:29;2.55;;;1.95;;
85461;SDS011;75865;42.672;23.360;2024-03-07T10:17:58;7.88;;;4.22;;
85461;SDS011;75865;42.672;23.360;2024-03-07T10:20:27;3.20;;;1.90;;
85461;SDS011;75865;42.672;23.360;2024-03-07T10:22:54;3.00;;;2.10;;
85461;SDS011;75865;42.672;23.360;2024-03-07T10:25:23;6.60;;;3.47;;
85461;SDS011;75865;42.672;23.360;2024-03-07T10:27:55;4.95;;;2.60;;
85461;SDS011;75865;42.672;23.360;2024-03-07T10:30:25;3.85;;;2.47;;
85461;SDS011;75865;42.672;23.360;2024-03-07T10:32:55;4.15;;;2.70;;
85461;SDS011;75865;42.672;23.360;2024-03-07T10:35:26;4.53;;;2.20;;
85461;SDS011;75865;42.672;23.360;2024-03-07T10:37:53;4.35;;;2.65;;
85461;SDS011;75865;42.672;23.360;2024-03-07T10:40:24;7.28;;;2.38;;
85461;SDS011;75865;42.672;23.360;2024-03-07T10:42:56;3.08;;;2.10;;
85461;SDS011;75865;42.672;23.360;2024-03-07T10:45:24;4.53;;;2.20;;
85461;SDS011;75865;42.672;23.360;2024-03-07T10:47:56;2.67;;;2.20;;
85461;SDS011;75865;42.672;23.360;2024-03-07T10:53:20;4.40;;;2.50;;
85461;SDS011;75865;42.672;23.360;2024-03-07T11:04:26;3.50;;;2.10;;
85461;SDS011;75865;42.672;23.360;2024-03-07T11:06:54;5.40;;;2.75;;
85461;SDS011;75865;42.672;23.360;2024-03-07T11:09:22;7.63;;;5.75;;
85461;SDS011;75865;42.672;23.360;2024-03-07T11:11:50;5.13;;;2.40;;
85461;SDS011;75865;42.672;23.360;2024-03-07T11:14:17;2.72;;;2.05;;
85461;SDS011;75865;42.672;23.360;2024-03-07T11:16:44;4.07;;;2.30;;
85461;SDS011;75865;42.672;23.360;2024-03-07T11:19:19;2.13;;;1.55;;
85461;SDS011;75865;42.672;23.360;2024-03-07T11:21:51;4.53;;;2.47;;
85461;SDS011;75865;42.672;23.360;2024-03-07T11:24:27;6.57;;;3.17;;
85461;SDS011;75865;42.672;23.360;2024-03-07T11:26:57;4.88;;;2.65;;
85461;SDS011;75865;42.672;23.360;2024-03-07T11:29:41;3.50;;;2.50;;
85461;SDS011;75865;42.672;23.360;2024-03-07T11:32:12;18.58;;;9.35;;
85461;SDS011;75865;42.672;23.360;2024-03-07T11:34:41;5.72;;;3.58;;
85461;SDS011;75865;42.672;23.360;2024-03-07T11:37:08;4.50;;;2.45;;
85461;SDS011;75865;42.672;23.360;2024-03-07T11:39:45;3.17;;;2.30;;
85461;SDS011;75865;42.672;23.360;2024-03-07T11:44:52;3.05;;;1.90;;
85461;SDS011;75865;42.672;23.360;2024-03-07T11:47:23;3.08;;;2.00;;
85461;SDS011;75865;42.672;23.360;2024-03-07T11:49:51;4.72;;;3.17;;
85461;SDS011;75865;42.672;23.360;2024-03-07T11:52:18;4.00;;;2.70;;
85461;SDS011;75865;42.672;23.360;2024-03-07T11:54:45;5.18;;;2.28;;
85461;SDS011;75865;42.672;23.360;2024-03-07T11:57:16;4.47;;;2.40;;
85461;SDS011;75865;42.672;23.360;2024-03-07T11:59:47;4.85;;;3.30;;
85461;SDS011;75865;42.672;23.360;2024-03-07T12:02:19;4.13;;;2.50;;
85461;SDS011;75865;42.672;23.360;2024-03-07T12:04:49;3.42;;;2.08;;
85461;SDS011;75865;42.672;23.360;2024-03-07T12:07:16;5.72;;;2.30;;
85461;SDS011;75865;42.672;23.360;2024-03-07T12:09:49;3.95;;;2.28;;
85461;SDS011;75865;42.672;23.360;2024-03-07T12:12:22;3.97;;;2.42;;
85461;SDS011;75865;42.672;23.360;2024-03-07T12:14:51;4.15;;;2.65;;
85461;SDS011;75865;42.672;23.360;2024-03-07T12:17:18;4.88;;;2.70;;
85461;SDS011;75865;42.672;23.360;2024-03-07T12:19:46;6.32;;;2.58;;
85461;SDS011;75865;42.672;23.360;2024-03-07T12:22:13;4.63;;;2.58;;
85461;SDS011;75865;42.672;23.360;2024-03-07T12:24:41;4.40;;;2.80;;
85461;SDS011;75865;42.672;23.360;2024-03-07T12:27:11;6.80;;;4.13;;
85461;SDS011;75865;42.672;23.360;2024-03-07T12:29:39;5.72;;;2.70;;
85461;SDS011;75865;42.672;23.360;2024-03-07T12:32:09;6.20;;;2.97;;
85461;SDS011;75865;42.672;23.360;2024-03-07T12:34:40;4.97;;;3.40;;
85461;SDS011;75865;42.672;23.360;2024-03-07T12:37:12;8.75;;;2.83;;
85461;SDS011;75865;42.672;23.360;2024-03-07T12:39:43;6.18;;;3.28;;
85461;SDS011;75865;42.672;23.360;2024-03-07T12:42:14;7.18;;;4.65;;
85461;SDS011;75865;42.672;23.360;2024-03-07T12:44:46;13.55;;;6.95;;
85461;SDS011;75865;42.672;23.360;2024-03-07T12:47:13;5.03;;;3.33;;
85461;SDS011;75865;42.672;23.360;2024-03-07T12:49:41;5.45;;;4.18;;
85461;SDS011;75865;42.672;23.360;2024-03-07T12:52:09;5.43;;;3.53;;
85461;SDS011;75865;42.672;23.360;2024-03-07T12:54:36;8.27;;;3.55;;
85461;SDS011;75865;42.672;23.360;2024-03-07T12:57:07;5.85;;;3.88;;
85461;SDS011;75865;42.672;23.360;2024-03-07T12:59:35;6.63;;;4.18;;
85461;SDS011;75865;42.672;23.360;2024-03-07T13:02:09;4.97;;;3.42;;
85461;SDS011;75865;42.672;23.360;2024-03-07T13:04:38;5.00;;;3.92;;
85461;SDS011;75865;42.672;23.360;2024-03-07T13:07:09;5.70;;;2.63;;
85461;SDS011;75865;42.672;23.360;2024-03-07T13:09:36;9.23;;;4.30;;
85461;SDS011;75865;42.672;23.360;2024-03-07T13:12:10;8.25;;;3.55;;
85461;SDS011;75865;42.672;23.360;2024-03-07T13:14:37;5.95;;;3.58;;
85461;SDS011;75865;42.672;23.360;2024-03-07T13:17:04;5.75;;;3.63;;
85461;SDS011;75865;42.672;23.360;2024-03-07T13:19:34;4.28;;;3.45;;
85461;SDS011;75865;42.672;23.360;2024-03-07T13:22:05;3.55;;;2.25;;
85461;SDS011;75865;42.672;23.360;2024-03-07T13:24:38;4.75;;;3.05;;
85461;SDS011;75865;42.672;23.360;2024-03-07T13:27:06;7.13;;;3.13;;
85461;SDS011;75865;42.672;23.360;2024-03-07T13:29:38;5.18;;;2.80;;
85461;SDS011;75865;42.672;23.360;2024-03-07T13:32:04;4.38;;;2.92;;
85461;SDS011;75865;42.672;23.360;2024-03-07T13:34:31;5.70;;;3.05;;
85461;SDS011;75865;42.672;23.360;2024-03-07T13:36:58;9.43;;;3.45;;
85461;SDS011;75865;42.672;23.360;2024-03-07T13:39:27;5.82;;;2.95;;
85461;SDS011;75865;42.672;23.360;2024-03-07T13:41:54;6.28;;;4.05;;
85461;SDS011;75865;42.672;23.360;2024-03-07T13:44:21;4.25;;;3.22;;
85461;SDS011;75865;42.672;23.360;2024-03-07T13:46:49;14.93;;;7.18;;
85461;SDS011;75865;42.672;23.360;2024-03-07T13:49:16;4.05;;;2.83;;
85461;SDS011;75865;42.672;23.360;2024-03-07T13:51:43;7.13;;;3.65;;
85461;SDS011;75865;42.672;23.360;2024-03-07T13:54:17;5.45;;;3.10;;
85461;SDS011;75865;42.672;23.360;2024-03-07T14:05:29;4.65;;;2.72;;
85461;SDS011;75865;42.672;23.360;2024-03-07T14:08:59;5.90;;;3.55;;
85461;SDS011;75865;42.672;23.360;2024-03-07T14:23:41;4.78;;;3.25;;
85461;SDS011;75865;42.672;23.360;2024-03-07T14:29:43;23.70;;;9.07;;
85461;SDS011;75865;42.672;23.360;2024-03-07T14:32:11;5.13;;;3.55;;
85461;SDS011;75865;42.672;23.360;2024-03-07T14:34:58;8.02;;;3.38;;
85461;SDS011;75865;42.672;23.360;2024-03-07T14:40:06;7.30;;;3.90;;
85461;SDS011;75865;42.672;23.360;2024-03-07T14:42:39;8.07;;;4.43;;
85461;SDS011;75865;42.672;23.360;2024-03-07T14:45:11;8.40;;;4.55;;
85461;SDS011;75865;42.672;23.360;2024-03-07T14:47:47;7.07;;;4.05;;
85461;SDS011;75865;42.672;23.360;2024-03-07T14:50:19;7.10;;;4.43;;
85461;SDS011;75865;42.672;23.360;2024-03-07T14:52:47;7.18;;;4.40;;
85461;SDS011;75865;42.672;23.360;2024-03-07T14:55:15;6.45;;;3.58;;
85461;SDS011;75865;42.672;23.360;2024-03-07T14:57:45;5.93;;;4.50;;
85461;SDS011;75865;42.672;23.360;2024-03-07T15:00:12;9.23;;;4.80;;
85461;SDS011;75865;42.672;23.360;2024-03-07T15:05:16;9.48;;;4.90;;
85461;SDS011;75865;42.672;23.360;2024-03-07T15:07:46;11.02;;;5.78;;
85461;SDS011;75865;42.672;23.360;2024-03-07T15:10:17;20.42;;;10.85;;
85461;SDS011;75865;42.672;23.360;2024-03-07T15:12:47;16.13;;;8.32;;
85461;SDS011;75865;42.672;23.360;2024-03-07T15:15:14;11.45;;;5.78;;
85461;SDS011;75865;42.672;23.360;2024-03-07T15:17:43;10.25;;;6.22;;
85461;SDS011;75865;42.672;23.360;2024-03-07T15:20:11;9.95;;;5.45;;
85461;SDS011;75865;42.672;23.360;2024-03-07T15:22:55;8.73;;;6.07;;
85461;SDS011;75865;42.672;23.360;2024-03-07T15:25:23;10.00;;;6.72;;
85461;SDS011;75865;42.672;23.360;2024-03-07T15:27:51;12.10;;;6.68;;
85461;SDS011;75865;42.672;23.360;2024-03-07T15:30:19;13.63;;;7.10;;